Time;durP1;ratioP1;P1;durP2;ratioP2;P2;SDS_P1;SDS_P2;PMS_P1;PMS_P2;Temp;Humidity;BMP_temperature;BMP_pressure;BME280_temperature;BME280_humidity;BME280_pressure;Samples;Min_cycle;Max_cycle;Signal;HPM_P1;HPM_P2
2023/10/27 00:00:54;;;;;;;23.63;12.98;;;9.90;99.90;;;;;;5057096;28;20059;-81
2023/10/27 00:03:20;;;;;;;25.58;13.43;;;9.90;99.90;;;;;;5056620;28;20449;-81
2023/10/27 00:05:45;;;;;;;27.60;14.55;;;9.90;99.90;;;;;;5056570;28;20080;-80
2023/10/27 00:08:13;;;;;;;26.13;13.73;;;9.90;99.90;;;;;;5056658;28;20090;-81
2023/10/27 00:10:39;;;;;;;26.73;14.15;;;9.90;99.90;;;;;;5056500;28;20510;-81
2023/10/27 00:13:04;;;;;;;25.83;14.65;;;9.90;99.90;;;;;;5056739;28;20040;-82
2023/10/27 00:15:30;;;;;;;31.13;16.10;;;9.90;99.90;;;;;;5056631;28;20047;-80
2023/10/27 00:17:58;;;;;;;28.27;15.68;;;9.90;99.90;;;;;;5056603;28;20052;-81
2023/10/27 00:20:24;;;;;;;27.23;13.40;;;9.90;99.90;;;;;;5056210;28;20102;-81
2023/10/27 00:22:51;;;;;;;28.48;15.40;;;9.90;99.90;;;;;;5056526;28;20114;-81
2023/10/27 00:25:17;;;;;;;26.52;14.35;;;9.90;99.90;;;;;;5056356;28;20048;-80
2023/10/27 00:27:42;;;;;;;27.27;14.35;;;9.90;99.90;;;;;;5056286;28;20047;-80
2023/10/27 00:30:09;;;;;;;27.20;14.18;;;9.90;99.90;;;;;;5074148;28;20182;-81
2023/10/27 00:32:36;;;;;;;27.23;13.40;;;9.90;99.90;;;;;;5055924;28;20043;-80
2023/10/27 00:35:04;;;;;;;27.58;15.07;;;9.90;99.90;;;;;;5055782;28;20068;-81
2023/10/27 00:37:32;;;;;;;24.73;13.57;;;9.90;99.90;;;;;;5055626;28;20056;-81
2023/10/27 00:39:57;;;;;;;29.52;15.23;;;9.90;99.90;;;;;;5056305;28;20052;-80
2023/10/27 00:42:23;;;;;;;25.23;13.93;;;9.90;99.90;;;;;;5056082;28;20399;-80
2023/10/27 00:44:48;;;;;;;24.80;13.80;;;9.90;99.90;;;;;;5056092;28;20052;-81
2023/10/27 00:47:14;;;;;;;26.92;14.27;;;9.90;99.90;;;;;;5055880;28;20086;-81
2023/10/27 00:49:40;;;;;;;31.17;15.90;;;9.90;99.90;;;;;;5055648;28;20044;-80
2023/10/27 00:52:06;;;;;;;26.90;14.48;;;9.90;99.90;;;;;;5055951;28;20054;-80
2023/10/27 00:54:34;;;;;;;31.30;15.10;;;9.90;99.90;;;;;;5055753;28;20124;-81
2023/10/27 00:56:59;;;;;;;25.60;14.18;;;9.90;99.90;;;;;;5055571;28;20087;-81
2023/10/27 00:59:25;;;;;;;24.48;13.90;;;9.90;99.90;;;;;;5055885;28;20076;-81
2023/10/27 01:01:51;;;;;;;26.02;14.77;;;9.90;99.90;;;;;;5055338;28;20090;-81
2023/10/27 01:04:16;;;;;;;27.10;14.40;;;9.90;99.90;;;;;;5055720;28;20048;-81
2023/10/27 01:06:42;;;;;;;26.23;14.85;;;9.90;99.90;;;;;;5055720;28;20043;-81
2023/10/27 01:09:08;;;;;;;25.90;14.80;;;9.90;99.90;;;;;;5055683;28;20048;-81
2023/10/27 01:11:34;;;;;;;26.77;15.52;;;9.90;99.90;;;;;;5055988;28;20044;-81
2023/10/27 01:14:00;;;;;;;29.85;15.00;;;9.90;99.90;;;;;;5055566;28;20048;-81
2023/10/27 01:16:26;;;;;;;28.30;15.45;;;9.90;99.90;;;;;;5055415;28;20044;-80
2023/10/27 01:18:51;;;;;;;26.90;14.93;;;9.90;99.90;;;;;;5055782;28;20052;-80
2023/10/27 01:21:17;;;;;;;27.15;14.70;;;9.90;99.90;;;;;;5055671;28;20045;-80
2023/10/27 01:23:44;;;;;;;26.60;14.18;;;9.90;99.90;;;;;;5055429;28;20415;-81
2023/10/27 01:26:10;;;;;;;25.67;14.57;;;9.90;99.90;;;;;;5055500;28;20036;-81
2023/10/27 01:28:35;;;;;;;28.00;14.40;;;9.90;99.90;;;;;;5055552;28;20098;-81
2023/10/27 01:31:01;;;;;;;27.92;14.45;;;9.90;99.90;;;;;;5055600;28;20437;-80
2023/10/27 01:33:26;;;;;;;28.58;15.45;;;9.90;99.90;;;;;;5055361;28;20160;-80
2023/10/27 01:35:52;;;;;;;25.70;14.98;;;9.90;99.90;;;;;;5055683;28;20131;-80
2023/10/27 01:38:18;;;;;;;27.30;14.20;;;9.90;99.90;;;;;;5055419;28;20051;-80
2023/10/27 01:40:43;;;;;;;28.20;15.32;;;9.90;99.90;;;;;;5055669;28;20047;-80
2023/10/27 01:43:09;;;;;;;30.95;16.38;;;9.90;99.90;;;;;;5055377;28;20052;-81
2023/10/27 01:45:35;;;;;;;25.77;15.10;;;9.90;99.90;;;;;;5055502;28;20110;-80
2023/10/27 01:48:01;;;;;;;27.90;15.30;;;9.90;99.90;;;;;;5057910;28;20071;-80
2023/10/27 01:50:26;;;;;;;32.80;15.68;;;9.90;99.90;;;;;;5059579;28;20066;-80
2023/10/27 01:52:52;;;;;;;31.02;15.23;;;9.90;99.90;;;;;;5059218;28;20471;-80
2023/10/27 01:55:18;;;;;;;27.52;15.65;;;9.90;99.90;;;;;;5059310;28;20041;-80
2023/10/27 01:57:44;;;;;;;28.33;15.18;;;9.90;99.90;;;;;;5058849;28;20404;-80
2023/10/27 02:00:10;;;;;;;31.33;16.73;;;9.80;99.90;;;;;;5058857;28;20066;-80
2023/10/27 02:02:36;;;;;;;28.33;15.52;;;9.90;99.90;;;;;;5076863;28;20475;-80
2023/10/27 02:05:03;;;;;;;30.70;16.80;;;9.90;99.90;;;;;;5058897;28;20044;-80
2023/10/27 02:07:29;;;;;;;28.25;15.75;;;9.90;99.90;;;;;;5058855;28;20073;-80
2023/10/27 02:09:59;;;;;;;29.63;16.10;;;9.90;99.90;;;;;;5059185;28;20052;-80
2023/10/27 02:12:28;;;;;;;29.75;15.48;;;9.90;99.90;;;;;;5058759;28;20037;-80
2023/10/27 02:14:54;;;;;;;28.88;16.35;;;9.90;99.90;;;;;;5076603;28;20067;-81
2023/10/27 02:17:19;;;;;;;26.67;16.20;;;9.90;99.90;;;;;;5058982;28;20395;-80
2023/10/27 02:19:47;;;;;;;28.00;15.60;;;9.90;99.90;;;;;;5058953;28;20037;-80
2023/10/27 02:22:15;;;;;;;32.53;17.33;;;9.90;99.90;;;;;;5058436;28;20056;-80
2023/10/27 02:24:42;;;;;;;30.13;17.17;;;9.90;99.90;;;;;;5058402;28;20053;-80
2023/10/27 02:27:07;;;;;;;28.40;15.52;;;9.90;99.90;;;;;;5058402;28;20438;-80
2023/10/27 02:29:33;;;;;;;28.13;16.25;;;9.90;99.90;;;;;;5058398;28;20044;-81
2023/10/27 02:31:58;;;;;;;30.48;15.90;;;9.90;99.90;;;;;;5058486;28;20094;-80
2023/10/27 02:34:25;;;;;;;28.40;16.35;;;9.90;99.90;;;;;;5058848;28;20083;-80
2023/10/27 02:36:50;;;;;;;30.40;17.00;;;9.90;99.90;;;;;;5058433;28;20044;-80
2023/10/27 02:39:16;;;;;;;27.80;16.08;;;9.90;99.90;;;;;;5058170;28;20045;-80
2023/10/27 02:41:42;;;;;;;29.65;15.32;;;9.90;99.90;;;;;;5058032;28;20048;-80
2023/10/27 02:44:08;;;;;;;31.55;15.27;;;9.90;99.90;;;;;;5058448;28;20079;-80
2023/10/27 02:46:35;;;;;;;27.52;14.63;;;9.90;99.90;;;;;;5058634;28;20040;-80
2023/10/27 02:49:02;;;;;;;27.83;15.60;;;9.90;99.90;;;;;;5057995;28;20058;-80
2023/10/27 02:51:28;;;;;;;26.10;15.50;;;9.90;99.90;;;;;;5058401;28;20484;-80
2023/10/27 02:53:55;;;;;;;29.30;16.17;;;9.90;99.90;;;;;;5057989;28;20045;-79
2023/10/27 02:56:20;;;;;;;25.20;14.73;;;9.90;99.90;;;;;;5057812;28;20048;-80
2023/10/27 02:58:46;;;;;;;30.48;16.05;;;9.90;99.90;;;;;;5057345;28;20044;-80
2023/10/27 03:01:15;;;;;;;25.83;14.57;;;9.90;99.90;;;;;;5057914;28;20097;-80
2023/10/27 03:03:42;;;;;;;28.00;15.75;;;9.80;99.90;;;;;;5075823;28;20468;-80
2023/10/27 03:06:08;;;;;;;28.50;15.50;;;9.80;99.90;;;;;;5057708;28;20483;-80
2023/10/27 03:08:34;;;;;;;27.40;14.13;;;9.80;99.90;;;;;;5057928;28;20048;-80
2023/10/27 03:11:00;;;;;;;27.98;15.50;;;9.80;99.90;;;;;;5057869;28;20123;-80
2023/10/27 03:13:30;;;;;;;28.25;14.00;;;9.80;99.90;;;;;;5057661;28;20044;-79
2023/10/27 03:15:58;;;;;;;31.00;14.85;;;9.80;99.90;;;;;;5075876;28;20049;-79
2023/10/27 03:18:24;;;;;;;26.90;13.75;;;9.80;99.90;;;;;;5057777;28;20097;-80
2023/10/27 03:20:56;;;;;;;26.38;13.43;;;9.80;99.90;;;;;;5057823;28;20462;-80
2023/10/27 03:23:23;;;;;;;26.07;13.43;;;9.70;99.90;;;;;;5057264;28;20055;-80
2023/10/27 03:25:49;;;;;;;30.20;15.13;;;9.80;99.90;;;;;;5057538;28;20052;-80
2023/10/27 03:28:15;;;;;;;31.10;15.75;;;9.70;99.90;;;;;;5057301;28;20048;-80
2023/10/27 03:30:42;;;;;;;28.30;15.23;;;9.70;99.90;;;;;;5057616;28;20046;-80
2023/10/27 03:33:08;;;;;;;27.17;13.93;;;9.70;99.90;;;;;;5057211;28;20055;-80
2023/10/27 03:35:34;;;;;;;27.92;13.60;;;9.70;99.90;;;;;;5075384;28;20036;-80
2023/10/27 03:38:00;;;;;;;27.88;15.50;;;9.70;99.90;;;;;;5057171;28;20047;-80
2023/10/27 03:40:26;;;;;;;26.80;14.68;;;9.70;99.90;;;;;;5057074;28;20049;-80
2023/10/27 03:42:51;;;;;;;29.02;15.05;;;9.70;99.90;;;;;;5057150;28;20131;-80
2023/10/27 03:45:17;;;;;;;26.85;13.57;;;9.70;99.90;;;;;;5075091;28;20044;-80
2023/10/27 03:47:42;;;;;;;25.02;13.20;;;9.70;99.90;;;;;;5057398;28;20083;-80
2023/10/27 03:50:08;;;;;;;24.70;13.68;;;9.70;99.90;;;;;;5057063;28;20377;-80
2023/10/27 03:52:34;;;;;;;27.38;13.50;;;9.70;99.90;;;;;;5056830;28;20106;-80
2023/10/27 03:55:00;;;;;;;28.38;13.15;;;9.70;99.90;;;;;;5056795;28;20127;-79
2023/10/27 03:57:25;;;;;;;26.95;14.60;;;9.70;99.90;;;;;;5056746;28;20127;-80
2023/10/27 03:59:51;;;;;;;27.00;14.20;;;9.70;99.90;;;;;;5057117;28;20086;-80
2023/10/27 04:02:16;;;;;;;30.73;15.35;;;9.70;99.90;;;;;;5057207;28;20419;-80
2023/10/27 04:04:42;;;;;;;27.65;15.40;;;9.70;99.90;;;;;;5056673;28;20040;-80
2023/10/27 04:07:08;;;;;;;31.10;14.70;;;9.60;99.90;;;;;;5056632;28;20048;-80
2023/10/27 04:09:33;;;;;;;28.23;14.10;;;9.60;99.90;;;;;;5056310;28;20047;-80
2023/10/27 04:11:59;;;;;;;26.08;14.48;;;9.70;99.90;;;;;;5056002;28;20064;-80
2023/10/27 04:14:25;;;;;;;27.52;14.45;;;9.70;99.90;;;;;;5074338;28;20040;-80
2023/10/27 04:16:50;;;;;;;27.05;14.32;;;9.70;99.90;;;;;;5056524;28;20041;-80
2023/10/27 04:19:16;;;;;;;27.20;14.65;;;9.60;99.90;;;;;;5056238;28;20036;-80
2023/10/27 04:21:42;;;;;;;28.85;14.73;;;9.60;99.90;;;;;;5056088;28;20045;-80
2023/10/27 04:24:09;;;;;;;30.58;15.10;;;9.60;99.90;;;;;;5056947;28;20075;-80
2023/10/27 04:26:36;;;;;;;27.05;14.90;;;9.70;99.90;;;;;;5056301;28;20048;-80
2023/10/27 04:29:01;;;;;;;31.70;16.02;;;9.60;99.90;;;;;;5074124;28;20414;-80
2023/10/27 04:31:27;;;;;;;29.40;14.30;;;9.60;99.90;;;;;;5056496;28;20525;-80
2023/10/27 04:33:56;;;;;;;29.55;14.55;;;9.60;99.90;;;;;;5056003;28;20040;-80
2023/10/27 04:36:21;;;;;;;28.10;14.48;;;9.60;99.90;;;;;;5074137;28;20123;-80
2023/10/27 04:38:47;;;;;;;26.60;13.88;;;9.60;99.90;;;;;;5055939;28;20128;-80
2023/10/27 04:41:13;;;;;;;27.05;14.43;;;9.60;99.90;;;;;;5056001;28;20127;-80
2023/10/27 04:43:38;;;;;;;28.00;13.77;;;9.60;99.90;;;;;;5056040;28;20045;-80
2023/10/27 04:46:04;;;;;;;26.75;14.57;;;9.60;99.90;;;;;;5056086;28;20494;-80
2023/10/27 04:48:30;;;;;;;29.02;15.50;;;9.60;99.90;;;;;;5055749;28;20093;-80
2023/10/27 04:50:59;;;;;;;28.45;14.35;;;9.50;99.90;;;;;;5055705;28;20436;-80
2023/10/27 04:53:25;;;;;;;31.65;15.65;;;9.60;99.90;;;;;;5055800;28;20040;-80
2023/10/27 04:55:50;;;;;;;26.05;14.00;;;9.50;99.90;;;;;;5055859;28;20049;-80
2023/10/27 04:58:17;;;;;;;27.15;14.60;;;9.50;99.90;;;;;;5055861;28;20085;-80
2023/10/27 05:00:43;;;;;;;28.35;15.00;;;9.50;99.90;;;;;;5055878;28;20048;-80
2023/10/27 05:03:09;;;;;;;31.95;15.77;;;9.50;99.90;;;;;;5056031;28;20055;-80
2023/10/27 05:05:34;;;;;;;27.02;13.90;;;9.40;99.90;;;;;;5055537;28;20040;-80
2023/10/27 05:08:00;;;;;;;29.70;14.95;;;9.40;99.90;;;;;;5055423;28;20051;-80
2023/10/27 05:10:25;;;;;;;27.15;15.32;;;9.40;99.90;;;;;;5055649;28;20587;-80
2023/10/27 05:12:51;;;;;;;28.73;15.32;;;9.40;99.90;;;;;;5055644;28;20132;-80
2023/10/27 05:15:17;;;;;;;27.30;15.77;;;9.40;99.90;;;;;;5056026;28;20072;-80
2023/10/27 05:17:42;;;;;;;27.65;13.45;;;9.40;99.90;;;;;;5055850;28;20392;-80
2023/10/27 05:20:10;;;;;;;27.65;15.48;;;9.30;99.90;;;;;;5055463;28;20365;-80
2023/10/27 05:22:36;;;;;;;30.35;14.60;;;9.30;99.90;;;;;;5055067;28;20133;-80
2023/10/27 05:25:06;;;;;;;26.33;14.15;;;9.30;99.90;;;;;;5055273;28;20051;-80
2023/10/27 05:27:34;;;;;;;25.95;13.45;;;9.30;99.90;;;;;;5055769;28;20051;-80
2023/10/27 05:30:01;;;;;;;25.48;13.95;;;9.30;99.90;;;;;;5055228;28;20049;-80
2023/10/27 05:32:26;;;;;;;28.67;14.70;;;9.30;99.90;;;;;;5055654;28;20434;-80
2023/10/27 05:34:53;;;;;;;28.63;14.35;;;9.30;99.90;;;;;;5073929;28;20036;-80
2023/10/27 05:37:21;;;;;;;26.73;14.93;;;9.30;99.90;;;;;;5055251;28;20079;-80
2023/10/27 05:39:47;;;;;;;28.80;14.50;;;9.30;99.90;;;;;;5055536;28;20036;-80
2023/10/27 05:42:14;;;;;;;29.23;14.52;;;9.30;99.90;;;;;;5055326;28;20110;-80
2023/10/27 05:44:41;;;;;;;28.70;14.85;;;9.30;99.90;;;;;;5055533;28;20048;-80
2023/10/27 05:47:07;;;;;;;28.27;14.98;;;9.30;99.90;;;;;;5073374;28;20083;-80
2023/10/27 05:49:32;;;;;;;31.52;14.95;;;9.30;99.90;;;;;;5055151;28;20054;-80
2023/10/27 05:52:02;;;;;;;29.10;14.60;;;9.30;99.90;;;;;;5055573;28;20127;-80
2023/10/27 05:54:31;;;;;;;26.83;13.75;;;9.30;99.90;;;;;;5055752;28;20044;-80
2023/10/27 05:56:57;;;;;;;27.08;13.98;;;9.30;99.90;;;;;;5055016;28;20127;-80
2023/10/27 05:59:23;;;;;;;27.30;14.48;;;9.20;99.90;;;;;;5055243;28;20123;-80
2023/10/27 06:01:48;;;;;;;29.83;14.70;;;9.30;99.90;;;;;;5073406;28;20076;-80
2023/10/27 06:04:15;;;;;;;28.83;14.55;;;9.20;99.90;;;;;;5055097;28;20045;-80
2023/10/27 06:06:41;;;;;;;35.75;16.17;;;9.30;99.90;;;;;;5055324;28;20047;-80
2023/10/27 06:09:06;;;;;;;29.85;13.48;;;9.30;99.90;;;;;;5055547;28;20052;-80
2023/10/27 06:11:32;;;;;;;27.80;14.32;;;9.30;99.90;;;;;;5073106;28;20052;-80
2023/10/27 06:13:58;;;;;;;26.50;13.40;;;9.30;99.90;;;;;;5055319;28;20048;-80
2023/10/27 06:16:24;;;;;;;26.88;13.65;;;9.30;99.90;;;;;;5055211;28;20094;-80
2023/10/27 06:18:52;;;;;;;26.77;14.05;;;9.30;99.90;;;;;;5055389;28;20464;-80
2023/10/27 06:21:18;;;;;;;27.65;13.90;;;9.30;99.90;;;;;;5055137;28;20059;-80
2023/10/27 06:23:44;;;;;;;26.50;12.55;;;9.30;99.90;;;;;;5054888;28;20048;-79
2023/10/27 06:26:12;;;;;;;27.05;13.27;;;9.30;99.90;;;;;;5054976;28;20061;-80
2023/10/27 06:28:37;;;;;;;25.63;12.48;;;9.40;99.90;;;;;;5054851;28;20102;-80
2023/10/27 06:31:04;;;;;;;27.33;14.80;;;9.40;99.90;;;;;;5054039;28;20056;-80
2023/10/27 06:33:32;;;;;;;29.80;13.35;;;9.40;99.90;;;;;;5054502;28;20041;-80
2023/10/27 06:36:02;;;;;;;25.58;13.63;;;9.40;99.90;;;;;;5058204;28;20403;-80
2023/10/27 06:38:27;;;;;;;27.48;14.60;;;9.40;99.90;;;;;;5056268;28;20119;-78
2023/10/27 06:40:53;;;;;;;26.23;13.45;;;9.40;99.90;;;;;;5066686;28;20124;-79
2023/10/27 06:43:19;;;;;;;27.20;14.50;;;9.40;99.90;;;;;;5037945;28;20482;-78
2023/10/27 06:45:45;;;;;;;27.33;13.38;;;9.50;99.90;;;;;;5037814;28;20519;-79
2023/10/27 06:48:10;;;;;;;28.83;14.10;;;9.50;99.90;;;;;;5055856;28;20052;-78
2023/10/27 06:50:36;;;;;;;30.45;14.82;;;9.50;99.90;;;;;;5037831;28;20423;-78
2023/10/27 06:53:02;;;;;;;29.35;13.15;;;9.50;99.90;;;;;;5037761;28;20052;-78
2023/10/27 06:55:28;;;;;;;25.92;13.95;;;9.50;99.90;;;;;;5037575;28;20095;-78
2023/10/27 06:57:54;;;;;;;26.63;13.80;;;9.50;99.90;;;;;;5055615;28;20049;-78
2023/10/27 07:00:19;;;;;;;31.45;15.70;;;9.60;99.90;;;;;;5055478;28;20057;-79
2023/10/27 07:02:45;;;;;;;30.02;15.40;;;9.50;99.90;;;;;;5037488;28;20124;-78
2023/10/27 07:05:13;;;;;;;27.27;13.50;;;9.50;99.90;;;;;;5037584;28;20148;-78
2023/10/27 07:07:40;;;;;;;25.80;14.93;;;9.50;99.90;;;;;;5055671;28;20048;-78
2023/10/27 07:10:06;;;;;;;29.35;16.15;;;9.60;99.90;;;;;;5055267;28;20103;-78
2023/10/27 07:12:31;;;;;;;26.38;14.80;;;9.60;99.90;;;;;;5055483;28;20037;-78
2023/10/27 07:14:57;;;;;;;30.48;13.93;;;9.60;99.90;;;;;;5037470;28;20400;-78
2023/10/27 07:17:23;;;;;;;27.88;14.80;;;9.60;99.90;;;;;;5037525;28;20044;-78
2023/10/27 07:19:48;;;;;;;26.67;14.45;;;9.60;99.90;;;;;;5037384;28;20377;-78
2023/10/27 07:22:17;;;;;;;29.17;16.10;;;9.70;99.90;;;;;;5037361;28;20156;-78
2023/10/27 07:24:44;;;;;;;29.20;15.00;;;9.70;99.90;;;;;;5037148;28;20049;-79
2023/10/27 07:27:09;;;;;;;26.88;14.00;;;9.70;99.90;;;;;;5037054;28;20049;-78
2023/10/27 07:29:35;;;;;;;30.65;15.82;;;9.70;99.90;;;;;;5055221;28;20052;-79
2023/10/27 07:32:01;;;;;;;29.88;15.43;;;9.70;99.90;;;;;;5037055;28;20041;-78
2023/10/27 07:34:26;;;;;;;26.48;14.55;;;9.70;99.90;;;;;;5054993;28;20040;-79
2023/10/27 07:36:53;;;;;;;28.13;14.90;;;9.70;99.90;;;;;;5055024;28;20146;-78
2023/10/27 07:39:19;;;;;;;26.38;14.18;;;9.80;99.90;;;;;;5037201;28;20041;-79
2023/10/27 07:41:45;;;;;;;29.13;14.93;;;9.80;99.90;;;;;;5037207;28;20044;-79
2023/10/27 07:44:10;;;;;;;31.15;14.73;;;9.80;99.90;;;;;;5054800;28;20618;-78
2023/10/27 07:46:36;;;;;;;26.83;13.95;;;9.80;99.90;;;;;;5036468;28;20044;-77
2023/10/27 07:49:02;;;;;;;28.63;14.63;;;9.80;99.90;;;;;;5054787;28;20049;-78
2023/10/27 07:51:27;;;;;;;27.77;14.43;;;9.80;99.90;;;;;;5036650;28;20045;-78
2023/10/27 07:53:53;;;;;;;26.48;14.60;;;9.90;99.90;;;;;;5036523;28;20171;-77
2023/10/27 07:56:18;;;;;;;26.48;14.48;;;9.90;99.90;;;;;;5036772;28;20129;-78
2023/10/27 07:58:45;;;;;;;27.70;13.07;;;9.90;99.90;;;;;;5036596;28;20053;-78
2023/10/27 08:01:10;;;;;;;24.92;12.90;;;9.90;99.90;;;;;;5036816;28;20124;-78
2023/10/27 08:03:38;;;;;;;25.10;14.05;;;9.90;99.90;;;;;;5036445;28;20472;-78
2023/10/27 08:06:07;;;;;;;22.73;12.18;;;10.00;99.90;;;;;;5036509;28;20495;-78
2023/10/27 08:08:33;;;;;;;23.70;12.20;;;10.00;99.90;;;;;;5036410;28;20053;-80
2023/10/27 08:10:59;;;;;;;25.02;12.85;;;10.00;99.90;;;;;;5054423;28;20428;-79
2023/10/27 08:13:25;;;;;;;26.95;12.18;;;10.00;99.90;;;;;;5054372;28;20490;-79
2023/10/27 08:15:51;;;;;;;22.98;12.10;;;10.00;99.90;;;;;;5054324;28;20048;-78
2023/10/27 08:18:17;;;;;;;22.90;11.85;;;10.00;99.90;;;;;;5054067;28;20040;-78
2023/10/27 08:20:43;;;;;;;18.55;9.73;;;10.00;99.90;;;;;;5059851;28;20377;-77
2023/10/27 08:23:09;;;;;;;17.77;9.50;;;10.00;99.90;;;;;;5055132;28;20385;-78
2023/10/27 08:25:36;;;;;;;20.80;10.30;;;10.00;99.90;;;;;;5055714;28;20401;-78
2023/10/27 08:28:03;;;;;;;15.50;8.63;;;10.00;99.90;;;;;;5055969;28;20079;-78
2023/10/27 08:30:29;;;;;;;15.20;8.88;;;10.00;99.90;;;;;;5056040;28;20048;-78
2023/10/27 08:32:54;;;;;;;14.07;7.32;;;10.00;99.90;;;;;;5055652;28;20447;-78
2023/10/27 08:35:20;;;;;;;17.27;8.57;;;10.00;99.90;;;;;;5055893;28;20053;-78
2023/10/27 08:37:45;;;;;;;14.65;8.27;;;10.00;99.90;;;;;;5055782;28;20047;-78
2023/10/27 08:40:12;;;;;;;14.70;8.35;;;10.00;99.90;;;;;;5073605;28;20048;-78
2023/10/27 08:42:42;;;;;;;13.57;7.28;;;10.00;99.90;;;;;;5055736;28;20123;-78
2023/10/27 08:45:08;;;;;;;12.70;7.25;;;10.00;99.90;;;;;;5073743;28;20538;-78
2023/10/27 08:47:34;;;;;;;15.32;7.70;;;10.00;99.90;;;;;;5055754;28;20407;-78
2023/10/27 08:50:03;;;;;;;13.85;7.57;;;10.00;99.90;;;;;;5055428;28;20052;-78
2023/10/27 08:52:29;;;;;;;12.68;6.82;;;10.10;99.90;;;;;;5055533;28;20044;-78
2023/10/27 08:54:55;;;;;;;13.48;7.40;;;10.10;99.90;;;;;;5055700;28;20051;-78
2023/10/27 08:57:20;;;;;;;15.40;8.40;;;10.10;99.90;;;;;;5054865;28;20055;-78
2023/10/27 08:59:47;;;;;;;14.38;7.72;;;10.10;99.90;;;;;;5055345;28;20041;-78
2023/10/27 09:02:12;;;;;;;14.75;8.00;;;10.10;99.90;;;;;;5055590;28;20127;-77
2023/10/27 09:04:44;;;;;;;15.23;7.70;;;10.10;99.90;;;;;;5055130;28;20482;-77
2023/10/27 09:07:10;;;;;;;13.40;7.15;;;10.10;99.90;;;;;;5055412;28;20049;-78
2023/10/27 09:09:36;;;;;;;14.23;7.63;;;10.20;99.90;;;;;;5055238;28;20044;-77
2023/10/27 09:12:02;;;;;;;13.30;7.40;;;10.10;99.90;;;;;;5055546;28;20389;-78
2023/10/27 09:14:30;;;;;;;24.55;11.52;;;10.20;99.90;;;;;;5055109;28;20071;-77
2023/10/27 09:17:07;;;;;;;14.18;7.10;;;10.20;99.90;;;;;;5055178;28;20155;-78
2023/10/27 09:19:33;;;;;;;13.38;6.82;;;10.20;99.90;;;;;;5054958;28;20492;-78
2023/10/27 09:22:00;;;;;;;13.05;6.78;;;10.20;99.90;;;;;;5054901;28;20411;-78
2023/10/27 09:24:26;;;;;;;15.70;7.88;;;10.20;99.90;;;;;;5055196;28;20049;-77
2023/10/27 09:26:53;;;;;;;14.25;7.38;;;10.20;99.90;;;;;;5055370;28;20040;-78
2023/10/27 09:29:20;;;;;;;15.55;8.10;;;10.20;99.90;;;;;;5055098;28;20064;-78
2023/10/27 09:31:46;;;;;;;14.75;8.10;;;10.30;99.90;;;;;;5055070;28;20040;-78
2023/10/27 09:34:25;;;;;;;13.57;7.50;;;10.30;99.90;;;;;;5027953;28;20244;-78
2023/10/27 09:36:52;;;;;;;15.18;7.03;;;10.30;99.90;;;;;;5052969;28;20489;-78
2023/10/27 09:39:20;;;;;;;13.57;7.32;;;10.40;99.90;;;;;;5087221;28;20119;-78
2023/10/27 09:41:49;;;;;;;11.95;6.70;;;10.40;99.90;;;;;;5074954;28;20044;-77
2023/10/27 09:44:18;;;;;;;12.52;7.18;;;10.40;99.90;;;;;;5074646;28;20426;-78
2023/10/27 09:46:51;;;;;;;12.57;7.50;;;10.50;99.90;;;;;;5092915;28;20554;-79
2023/10/27 09:49:24;;;;;;;;;;;10.50;99.90;;;;;;5075432;28;20511;-79
2023/10/27 09:51:56;;;;;;;10.52;6.35;;;10.40;99.90;;;;;;5062661;28;20011;-79
2023/10/27 09:54:22;;;;;;;15.07;7.68;;;10.50;99.90;;;;;;5073046;28;20051;-79
2023/10/27 09:56:48;;;;;;;11.57;6.50;;;10.50;99.90;;;;;;5054897;28;20040;-78
2023/10/27 09:59:14;;;;;;;13.27;6.95;;;10.50;99.90;;;;;;5055048;28;20040;-78
2023/10/27 10:01:39;;;;;;;10.68;6.05;;;10.50;99.90;;;;;;5055004;28;20049;-78
2023/10/27 10:04:05;;;;;;;11.57;6.90;;;10.60;99.90;;;;;;5073010;28;20044;-77
2023/10/27 10:06:32;;;;;;;10.15;6.30;;;10.60;99.90;;;;;;5072883;28;20098;-77
2023/10/27 10:09:09;;;;;;;9.85;6.05;;;10.60;99.90;;;;;;5069133;28;20449;-77
2023/10/27 10:11:55;;;;;;;9.43;5.55;;;10.60;99.90;;;;;;5078733;28;20147;-77
2023/10/27 10:14:36;;;;;;;10.18;5.88;;;10.60;99.90;;;;;;5078363;28;20067;-77
2023/10/27 10:17:03;;;;;;;9.93;5.97;;;10.70;99.90;;;;;;5078382;28;20043;-78
2023/10/27 10:19:51;;;;;;;8.30;4.97;;;10.70;99.90;;;;;;5078481;28;20040;-78
2023/10/27 10:22:40;;;;;;;8.75;4.80;;;10.70;99.90;;;;;;5096279;28;20052;-77
2023/10/27 10:25:15;;;;;;;7.88;4.63;;;10.80;99.90;;;;;;5078123;28;20052;-78
2023/10/27 10:28:07;;;;;;;8.63;5.07;;;10.70;99.90;;;;;;5078499;28;20109;-78
2023/10/27 10:31:09;;;;;;;8.35;4.57;;;10.70;99.90;;;;;;5040483;28;20052;-78
2023/10/27 10:33:36;;;;;;;11.23;7.70;;;10.80;99.90;;;;;;5096044;28;20415;-78
2023/10/27 10:36:22;;;;;;;8.27;4.60;;;10.80;99.90;;;;;;5076755;28;20044;-77
2023/10/27 10:39:10;;;;;;;8.18;4.47;;;10.90;99.90;;;;;;5058066;28;20507;-77
2023/10/27 10:41:44;;;;;;;7.75;4.32;;;10.90;99.90;;;;;;5058054;28;20052;-78
2023/10/27 10:44:14;;;;;;;7.97;4.30;;;10.90;99.90;;;;;;5037971;28;20103;-78
2023/10/27 10:46:40;;;;;;;7.00;4.47;;;11.00;99.90;;;;;;5038122;28;20049;-78
2023/10/27 10:49:06;;;;;;;7.55;4.22;;;11.00;99.90;;;;;;5037801;28;20053;-77
2023/10/27 10:51:39;;;;;;;7.95;4.55;;;11.00;99.90;;;;;;5037870;28;20049;-77
2023/10/27 10:54:12;;;;;;;8.05;4.65;;;11.00;99.90;;;;;;5037731;28;20053;-78
2023/10/27 10:56:38;;;;;;;7.45;3.67;;;11.00;99.90;;;;;;5037824;28;20123;-78
2023/10/27 10:59:04;;;;;;;7.40;4.30;;;11.10;99.90;;;;;;5037688;28;20135;-78
2023/10/27 11:01:30;;;;;;;7.90;3.65;;;11.10;99.90;;;;;;5037682;28;20049;-77
2023/10/27 11:03:57;;;;;;;8.23;3.97;;;11.10;99.90;;;;;;5037742;28;20049;-78
2023/10/27 11:06:29;;;;;;;6.63;3.88;;;11.10;99.90;;;;;;5037847;28;20055;-78
2023/10/27 11:08:54;;;;;;;7.57;4.05;;;11.10;99.90;;;;;;5055453;28;20041;-77
2023/10/27 11:11:21;;;;;;;8.48;4.22;;;11.20;99.90;;;;;;5037271;28;20103;-77
2023/10/27 11:13:47;;;;;;;6.78;4.03;;;11.10;99.90;;;;;;5037396;28;20037;-78
2023/10/27 11:16:14;;;;;;;6.65;3.85;;;11.10;99.90;;;;;;5037578;28;20041;-77
2023/10/27 11:18:40;;;;;;;6.85;4.18;;;11.20;99.90;;;;;;5037222;28;20459;-78
2023/10/27 11:21:05;;;;;;;9.20;4.85;;;11.10;99.90;;;;;;5036632;28;20053;-77
2023/10/27 11:23:31;;;;;;;7.68;4.13;;;11.20;99.90;;;;;;5036954;28;20060;-78
2023/10/27 11:26:03;;;;;;;7.82;4.65;;;11.20;99.90;;;;;;5037469;28;20052;-78
2023/10/27 11:28:29;;;;;;;8.13;4.88;;;11.20;99.90;;;;;;5052588;28;20049;-77
2023/10/27 11:31:24;;;;;;;14.15;4.45;;;11.20;99.90;;;;;;5035818;28;20456;-77
2023/10/27 11:34:07;;;;;;;9.98;4.85;;;11.30;99.90;;;;;;5028672;28;20095;-79
2023/10/27 11:36:40;;;;;;;7.45;4.35;;;11.30;99.90;;;;;;5035921;28;20044;-78
2023/10/27 11:39:20;;;;;;;7.80;4.63;;;11.30;99.90;;;;;;5054531;28;20411;-79
2023/10/27 11:42:00;;;;;;;8.02;4.82;;;11.30;99.90;;;;;;5036872;28;20053;-79
2023/10/27 11:44:27;;;;;;;8.50;4.93;;;11.30;99.90;;;;;;5036831;28;20059;-79
2023/10/27 11:46:58;;;;;;;8.02;4.80;;;11.30;99.90;;;;;;5036776;28;20087;-79
2023/10/27 11:49:25;;;;;;;10.82;6.28;;;11.30;99.90;;;;;;5053400;28;20036;-79
2023/10/27 11:51:55;;;;;;;8.05;4.57;;;11.30;99.90;;;;;;5068616;28;20449;-79
2023/10/27 11:54:22;;;;;;;8.45;4.47;;;11.20;99.90;;;;;;5076538;28;20044;-79
2023/10/27 11:56:48;;;;;;;7.82;5.60;;;11.20;99.90;;;;;;5094955;28;20058;-79
2023/10/27 11:59:16;;;;;;;8.00;5.00;;;11.20;99.90;;;;;;5076460;28;20078;-79
2023/10/27 12:01:41;;;;;;;8.15;4.53;;;11.20;99.90;;;;;;5076316;28;20059;-78
2023/10/27 12:04:09;;;;;;;8.43;4.28;;;11.10;99.90;;;;;;5076725;28;20052;-78
2023/10/27 12:06:35;;;;;;;6.75;3.53;;;11.20;99.90;;;;;;5094453;28;20052;-78
2023/10/27 12:09:01;;;;;;;6.97;3.97;;;11.20;99.90;;;;;;5094258;28;20051;-78
2023/10/27 12:11:29;;;;;;;7.28;4.35;;;11.30;99.90;;;;;;5076275;28;20548;-77
2023/10/27 12:13:55;;;;;;;10.55;6.03;;;11.20;99.90;;;;;;5076304;28;20086;-78
2023/10/27 12:16:22;;;;;;;11.30;6.10;;;11.20;99.90;;;;;;5094059;28;20519;-77
2023/10/27 12:18:49;;;;;;;9.27;4.60;;;11.20;99.90;;;;;;5076226;28;20181;-77
2023/10/27 12:21:15;;;;;;;8.50;4.82;;;11.20;99.90;;;;;;5094213;28;20108;-78
2023/10/27 12:23:43;;;;;;;9.32;5.00;;;11.20;99.90;;;;;;5075842;28;20131;-77
2023/10/27 12:26:09;;;;;;;9.90;4.97;;;11.20;99.90;;;;;;5076217;28;20193;-77
2023/10/27 12:28:35;;;;;;;8.75;4.90;;;11.20;99.90;;;;;;5076126;28;20090;-78
2023/10/27 12:31:01;;;;;;;9.18;5.28;;;11.10;99.90;;;;;;5075114;28;20090;-77
2023/10/27 12:33:27;;;;;;;8.55;4.90;;;11.20;99.90;;;;;;5075385;28;20044;-79
2023/10/27 12:35:55;;;;;;;9.00;5.30;;;11.10;99.90;;;;;;5081888;22;20063;-78
2023/10/27 12:38:20;;;;;;;10.40;6.05;;;11.20;99.90;;;;;;5075614;28;20052;-78